sensor_id;sensor_type;location;lat;lon;timestamp;P1;P2;P0
51320;PMS5003;38732;49.556;6.286;2022-08-19T00:02:05;19.50;19.50;13.50
51320;PMS5003;38732;49.556;6.286;2022-08-19T00:04:34;21.25;21.00;13.75
51320;PMS5003;38732;49.556;6.286;2022-08-19T00:07:04;22.60;21.00;14.00
51320;PMS5003;38732;49.556;6.286;2022-08-19T00:09:34;29.80;24.60;17.60
51320;PMS5003;38732;49.556;6.286;2022-08-19T00:12:03;23.25;22.25;13.50
51320;PMS5003;38732;49.556;6.286;2022-08-19T00:14:31;22.50;22.00;14.00
51320;PMS5003;38732;49.556;6.286;2022-08-19T00:17:00;29.25;28.00;16.00
51320;PMS5003;38732;49.556;6.286;2022-08-19T00:19:28;30.75;27.25;17.00
51320;PMS5003;38732;49.556;6.286;2022-08-19T00:21:57;25.00;25.00;15.00
51320;PMS5003;38732;49.556;6.286;2022-08-19T00:24:25;28.50;26.25;15.00
51320;PMS5003;38732;49.556;6.286;2022-08-19T00:26:54;26.25;23.25;16.75
51320;PMS5003;38732;49.556;6.286;2022-08-19T00:29:23;29.40;25.40;15.20
51320;PMS5003;38732;49.556;6.286;2022-08-19T00:31:52;28.80;24.40;16.00
51320;PMS5003;38732;49.556;6.286;2022-08-19T00:34:21;21.50;21.50;14.00
51320;PMS5003;38732;49.556;6.286;2022-08-19T00:36:50;23.75;20.75;13.50
51320;PMS5003;38732;49.556;6.286;2022-08-19T00:39:18;29.75;24.25;14.00
51320;PMS5003;38732;49.556;6.286;2022-08-19T00:41:47;27.00;25.50;15.00
51320;PMS5003;38732;49.556;6.286;2022-08-19T00:44:20;20.60;20.00;11.40
51320;PMS5003;38732;49.556;6.286;2022-08-19T00:46:51;25.40;25.40;16.00
51320;PMS5003;38732;49.556;6.286;2022-08-19T00:49:22;28.40;25.40;17.80
51320;PMS5003;38732;49.556;6.286;2022-08-19T00:52:28;26.60;26.40;15.20
51320;PMS5003;38732;49.556;6.286;2022-08-19T00:55:00;26.60;24.00;15.80
51320;PMS5003;38732;49.556;6.286;2022-08-19T00:57:35;28.60;27.40;16.20
51320;PMS5003;38732;49.556;6.286;2022-08-19T01:00:07;31.00;27.40;17.20
51320;PMS5003;38732;49.556;6.286;2022-08-19T01:02:39;31.40;29.00;15.40
51320;PMS5003;38732;49.556;6.286;2022-08-19T01:05:10;35.20;31.20;17.40
51320;PMS5003;38732;49.556;6.286;2022-08-19T01:07:41;33.40;28.80;17.80
51320;PMS5003;38732;49.556;6.286;2022-08-19T01:10:14;29.00;27.00;15.75
51320;PMS5003;38732;49.556;6.286;2022-08-19T01:12:46;29.00;25.20;14.60
51320;PMS5003;38732;49.556;6.286;2022-08-19T01:15:16;31.40;29.20;18.60
51320;PMS5003;38732;49.556;6.286;2022-08-19T01:17:47;22.80;21.80;13.60
51320;PMS5003;38732;49.556;6.286;2022-08-19T01:20:21;29.80;26.80;14.80
51320;PMS5003;38732;49.556;6.286;2022-08-19T01:22:52;26.60;26.20;15.20
51320;PMS5003;38732;49.556;6.286;2022-08-19T01:25:24;29.40;29.00;17.80
51320;PMS5003;38732;49.556;6.286;2022-08-19T01:27:59;30.20;23.60;12.80
51320;PMS5003;38732;49.556;6.286;2022-08-19T01:30:28;31.25;27.50;18.25
51320;PMS5003;38732;49.556;6.286;2022-08-19T01:33:00;31.40;28.80;17.00
51320;PMS5003;38732;49.556;6.286;2022-08-19T01:35:29;28.40;24.00;14.60
51320;PMS5003;38732;49.556;6.286;2022-08-19T01:37:59;29.50;25.75;15.50
51320;PMS5003;38732;49.556;6.286;2022-08-19T01:40:30;29.60;29.00;15.40
51320;PMS5003;38732;49.556;6.286;2022-08-19T01:43:00;32.00;30.20;19.00
51320;PMS5003;38732;49.556;6.286;2022-08-19T01:45:31;36.00;31.60;18.40
51320;PMS5003;38732;49.556;6.286;2022-08-19T01:48:01;25.60;24.60;16.60
51320;PMS5003;38732;49.556;6.286;2022-08-19T01:50:31;25.00;23.60;15.80
51320;PMS5003;38732;49.556;6.286;2022-08-19T01:53:02;32.20;27.20;18.60
51320;PMS5003;38732;49.556;6.286;2022-08-19T01:55:34;29.60;28.80;17.20
51320;PMS5003;38732;49.556;6.286;2022-08-19T01:58:04;26.00;26.00;17.20
51320;PMS5003;38732;49.556;6.286;2022-08-19T02:00:33;21.00;20.40;15.80
51320;PMS5003;38732;49.556;6.286;2022-08-19T02:03:02;31.25;29.25;19.00
51320;PMS5003;38732;49.556;6.286;2022-08-19T02:05:30;30.00;28.00;18.00
51320;PMS5003;38732;49.556;6.286;2022-08-19T02:07:58;26.25;24.50;13.25
51320;PMS5003;38732;49.556;6.286;2022-08-19T02:10:27;26.50;24.50;15.00
51320;PMS5003;38732;49.556;6.286;2022-08-19T02:12:55;29.75;27.00;17.25
51320;PMS5003;38732;49.556;6.286;2022-08-19T02:15:23;30.50;27.50;16.00
51320;PMS5003;38732;49.556;6.286;2022-08-19T02:17:52;38.00;31.50;18.25
51320;PMS5003;38732;49.556;6.286;2022-08-19T02:20:20;24.00;23.25;12.75
51320;PMS5003;38732;49.556;6.286;2022-08-19T02:22:48;28.00;25.00;15.75
51320;PMS5003;38732;49.556;6.286;2022-08-19T02:25:16;30.25;24.75;14.75
51320;PMS5003;38732;49.556;6.286;2022-08-19T02:27:44;30.75;27.75;17.00
51320;PMS5003;38732;49.556;6.286;2022-08-19T02:30:15;24.25;24.00;13.50
51320;PMS5003;38732;49.556;6.286;2022-08-19T02:32:44;27.60;26.60;16.60
51320;PMS5003;38732;49.556;6.286;2022-08-19T02:35:13;26.00;26.00;18.00
51320;PMS5003;38732;49.556;6.286;2022-08-19T02:37:42;37.00;29.00;18.80
51320;PMS5003;38732;49.556;6.286;2022-08-19T02:40:10;26.75;26.50;16.75
51320;PMS5003;38732;49.556;6.286;2022-08-19T02:42:39;25.00;24.50;17.50
51320;PMS5003;38732;49.556;6.286;2022-08-19T02:45:07;30.00;28.25;14.00
51320;PMS5003;38732;49.556;6.286;2022-08-19T02:47:36;31.50;29.25;15.50
51320;PMS5003;38732;49.556;6.286;2022-08-19T02:50:04;28.75;28.25;18.25
51320;PMS5003;38732;49.556;6.286;2022-08-19T02:52:34;34.20;28.60;17.00
51320;PMS5003;38732;49.556;6.286;2022-08-19T02:55:02;32.25;29.00;19.00
51320;PMS5003;38732;49.556;6.286;2022-08-19T02:57:31;29.00;25.00;14.25
51320;PMS5003;38732;49.556;6.286;2022-08-19T02:59:59;29.00;27.50;17.00
51320;PMS5003;38732;49.556;6.286;2022-08-19T03:02:28;29.75;29.25;17.50
51320;PMS5003;38732;49.556;6.286;2022-08-19T03:04:56;32.00;26.25;17.00
51320;PMS5003;38732;49.556;6.286;2022-08-19T03:07:24;32.50;30.00;16.25
51320;PMS5003;38732;49.556;6.286;2022-08-19T03:09:53;29.25;28.50;18.50
51320;PMS5003;38732;49.556;6.286;2022-08-19T03:12:21;24.25;22.50;13.25
51320;PMS5003;38732;49.556;6.286;2022-08-19T03:14:49;25.50;25.25;17.00
51320;PMS5003;38732;49.556;6.286;2022-08-19T03:17:18;28.00;25.25;15.00
51320;PMS5003;38732;49.556;6.286;2022-08-19T03:19:46;26.75;25.00;16.25
51320;PMS5003;38732;49.556;6.286;2022-08-19T03:22:14;26.25;25.00;17.00
51320;PMS5003;38732;49.556;6.286;2022-08-19T03:24:43;24.50;24.25;15.50
51320;PMS5003;38732;49.556;6.286;2022-08-19T03:27:11;29.75;28.00;17.75
51320;PMS5003;38732;49.556;6.286;2022-08-19T03:29:39;32.50;28.00;17.00
51320;PMS5003;38732;49.556;6.286;2022-08-19T03:32:07;25.50;24.25;15.75
51320;PMS5003;38732;49.556;6.286;2022-08-19T03:34:36;27.00;26.25;17.00
51320;PMS5003;38732;49.556;6.286;2022-08-19T03:37:09;32.40;30.00;19.20
51320;PMS5003;38732;49.556;6.286;2022-08-19T03:39:39;26.00;25.80;16.00
51320;PMS5003;38732;49.556;6.286;2022-08-19T03:42:09;28.20;28.00;18.20
51320;PMS5003;38732;49.556;6.286;2022-08-19T03:44:37;30.00;29.00;19.25
51320;PMS5003;38732;49.556;6.286;2022-08-19T03:47:06;24.25;23.00;17.50
51320;PMS5003;38732;49.556;6.286;2022-08-19T03:49:34;26.75;26.00;16.50
51320;PMS5003;38732;49.556;6.286;2022-08-19T03:52:02;30.75;27.00;15.25
51320;PMS5003;38732;49.556;6.286;2022-08-19T03:54:32;35.40;31.00;20.00
51320;PMS5003;38732;49.556;6.286;2022-08-19T03:57:00;26.00;25.25;16.00
51320;PMS5003;38732;49.556;6.286;2022-08-19T03:59:30;31.00;26.50;14.50
51320;PMS5003;38732;49.556;6.286;2022-08-19T04:02:02;26.60;25.20;17.20
51320;PMS5003;38732;49.556;6.286;2022-08-19T04:04:36;29.00;25.60;19.00
51320;PMS5003;38732;49.556;6.286;2022-08-19T04:07:06;29.00;27.00;16.20
51320;PMS5003;38732;49.556;6.286;2022-08-19T04:09:35;26.00;25.20;15.20
51320;PMS5003;38732;49.556;6.286;2022-08-19T04:12:04;30.20;24.60;15.20
51320;PMS5003;38732;49.556;6.286;2022-08-19T04:14:33;33.00;32.40;20.00
51320;PMS5003;38732;49.556;6.286;2022-08-19T04:17:02;30.20;28.80;19.20
51320;PMS5003;38732;49.556;6.286;2022-08-19T04:19:32;30.40;27.60;17.40
51320;PMS5003;38732;49.556;6.286;2022-08-19T04:22:02;34.80;31.20;18.80
51320;PMS5003;38732;49.556;6.286;2022-08-19T04:24:31;31.20;30.00;18.00
51320;PMS5003;38732;49.556;6.286;2022-08-19T04:27:00;31.75;29.00;15.00
51320;PMS5003;38732;49.556;6.286;2022-08-19T04:29:29;29.60;27.20;18.80
51320;PMS5003;38732;49.556;6.286;2022-08-19T04:31:57;35.25;32.50;19.75
51320;PMS5003;38732;49.556;6.286;2022-08-19T04:34:27;27.40;27.20;18.00
51320;PMS5003;38732;49.556;6.286;2022-08-19T04:36:57;30.00;29.20;17.60
51320;PMS5003;38732;49.556;6.286;2022-08-19T04:39:28;27.00;26.60;16.80
51320;PMS5003;38732;49.556;6.286;2022-08-19T04:41:57;28.60;26.80;17.80
51320;PMS5003;38732;49.556;6.286;2022-08-19T04:44:26;31.00;27.50;19.00
51320;PMS5003;38732;49.556;6.286;2022-08-19T04:46:54;28.50;25.25;15.00
51320;PMS5003;38732;49.556;6.286;2022-08-19T04:49:23;29.75;26.50;18.00
51320;PMS5003;38732;49.556;6.286;2022-08-19T04:51:52;32.40;32.40;19.80
51320;PMS5003;38732;49.556;6.286;2022-08-19T04:54:23;33.60;29.00;18.60
51320;PMS5003;38732;49.556;6.286;2022-08-19T04:56:53;34.60;28.80;16.40
51320;PMS5003;38732;49.556;6.286;2022-08-19T04:59:21;24.25;22.25;14.50
51320;PMS5003;38732;49.556;6.286;2022-08-19T05:01:49;41.00;33.25;19.00
51320;PMS5003;38732;49.556;6.286;2022-08-19T05:04:18;33.00;31.50;17.75
51320;PMS5003;38732;49.556;6.286;2022-08-19T05:06:48;33.80;30.40;19.40
51320;PMS5003;38732;49.556;6.286;2022-08-19T05:09:16;30.80;29.80;18.40
51320;PMS5003;38732;49.556;6.286;2022-08-19T05:11:45;31.00;26.00;17.00
51320;PMS5003;38732;49.556;6.286;2022-08-19T05:14:13;35.00;31.50;18.50
51320;PMS5003;38732;49.556;6.286;2022-08-19T05:16:41;36.75;31.75;20.25
51320;PMS5003;38732;49.556;6.286;2022-08-19T05:19:10;36.00;33.00;19.50
51320;PMS5003;38732;49.556;6.286;2022-08-19T05:21:39;28.25;28.25;19.50
51320;PMS5003;38732;49.556;6.286;2022-08-19T05:24:09;34.40;30.60;18.80
51320;PMS5003;38732;49.556;6.286;2022-08-19T05:26:38;33.50;28.50;18.00
51320;PMS5003;38732;49.556;6.286;2022-08-19T05:29:08;25.60;24.40;18.60
51320;PMS5003;38732;49.556;6.286;2022-08-19T05:31:37;30.20;27.80;18.60
51320;PMS5003;38732;49.556;6.286;2022-08-19T05:34:05;33.25;32.75;19.00
51320;PMS5003;38732;49.556;6.286;2022-08-19T05:36:35;28.00;27.25;14.50
51320;PMS5003;38732;49.556;6.286;2022-08-19T05:39:06;30.40;27.60;15.20
51320;PMS5003;38732;49.556;6.286;2022-08-19T05:41:37;36.40;34.40;20.60
51320;PMS5003;38732;49.556;6.286;2022-08-19T05:44:09;35.60;33.40;20.60
51320;PMS5003;38732;49.556;6.286;2022-08-19T05:46:38;31.00;30.50;17.75
51320;PMS5003;38732;49.556;6.286;2022-08-19T05:49:07;24.40;21.20;12.20
51320;PMS5003;38732;49.556;6.286;2022-08-19T05:51:36;25.75;24.00;15.00
51320;PMS5003;38732;49.556;6.286;2022-08-19T05:54:05;30.50;27.25;15.00
51320;PMS5003;38732;49.556;6.286;2022-08-19T05:56:34;29.60;27.40;12.60
51320;PMS5003;38732;49.556;6.286;2022-08-19T05:59:03;32.75;29.50;17.50
51320;PMS5003;38732;49.556;6.286;2022-08-19T06:01:32;32.40;30.00;18.60
51320;PMS5003;38732;49.556;6.286;2022-08-19T06:04:01;30.25;27.50;14.00
51320;PMS5003;38732;49.556;6.286;2022-08-19T06:06:30;31.40;27.80;17.20
51320;PMS5003;38732;49.556;6.286;2022-08-19T06:08:58;32.50;32.50;18.25
51320;PMS5003;38732;49.556;6.286;2022-08-19T06:14:02;33.80;31.80;20.00
51320;PMS5003;38732;49.556;6.286;2022-08-19T06:16:34;29.00;29.00;16.40
51320;PMS5003;38732;49.556;6.286;2022-08-19T06:19:03;29.60;29.60;17.20
51320;PMS5003;38732;49.556;6.286;2022-08-19T06:21:34;32.00;29.20;16.40
51320;PMS5003;38732;49.556;6.286;2022-08-19T06:24:08;32.80;29.80;18.00
51320;PMS5003;38732;49.556;6.286;2022-08-19T06:26:39;30.80;27.80;17.00
51320;PMS5003;38732;49.556;6.286;2022-08-19T06:29:10;4.20;1.60;0.00
51320;PMS5003;38732;49.556;6.286;2022-08-19T06:31:41;30.20;29.40;18.00
51320;PMS5003;38732;49.556;6.286;2022-08-19T06:34:14;30.60;29.20;16.40
51320;PMS5003;38732;49.556;6.286;2022-08-19T06:36:43;33.75;30.50;16.00
51320;PMS5003;38732;49.556;6.286;2022-08-19T06:39:15;32.80;28.60;17.20
51320;PMS5003;38732;49.556;6.286;2022-08-19T06:41:47;30.80;28.40;16.00
51320;PMS5003;38732;49.556;6.286;2022-08-19T06:44:18;36.00;32.20;20.00
51320;PMS5003;38732;49.556;6.286;2022-08-19T06:46:48;30.60;29.80;15.20
51320;PMS5003;38732;49.556;6.286;2022-08-19T06:49:17;33.25;32.75;19.00
51320;PMS5003;38732;49.556;6.286;2022-08-19T06:51:46;30.50;30.00;18.75
51320;PMS5003;38732;49.556;6.286;2022-08-19T06:54:16;32.20;32.20;18.00
51320;PMS5003;38732;49.556;6.286;2022-08-19T06:56:46;36.60;30.20;17.20
51320;PMS5003;38732;49.556;6.286;2022-08-19T06:59:19;35.20;34.20;21.80
51320;PMS5003;38732;49.556;6.286;2022-08-19T07:01:51;43.00;36.60;22.20
51320;PMS5003;38732;49.556;6.286;2022-08-19T07:04:22;35.60;33.40;19.80
51320;PMS5003;38732;49.556;6.286;2022-08-19T07:07:04;39.60;36.20;20.80
51320;PMS5003;38732;49.556;6.286;2022-08-19T07:09:39;34.40;33.40;20.20
51320;PMS5003;38732;49.556;6.286;2022-08-19T07:12:09;39.00;34.60;22.00
51320;PMS5003;38732;49.556;6.286;2022-08-19T07:14:41;44.80;39.40;26.00
51320;PMS5003;38732;49.556;6.286;2022-08-19T07:17:10;42.20;36.00;19.20
51320;PMS5003;38732;49.556;6.286;2022-08-19T07:19:40;40.20;37.40;23.40
51320;PMS5003;38732;49.556;6.286;2022-08-19T07:22:09;41.20;39.00;21.40
51320;PMS5003;38732;49.556;6.286;2022-08-19T07:24:38;44.25;40.75;25.50
51320;PMS5003;38732;49.556;6.286;2022-08-19T07:27:06;42.25;38.00;24.25
51320;PMS5003;38732;49.556;6.286;2022-08-19T07:29:35;44.25;39.00;23.25
51320;PMS5003;38732;49.556;6.286;2022-08-19T07:32:05;43.80;38.80;23.00
51320;PMS5003;38732;49.556;6.286;2022-08-19T07:34:33;40.50;35.00;16.50
51320;PMS5003;38732;49.556;6.286;2022-08-19T07:37:02;49.25;41.00;26.00
51320;PMS5003;38732;49.556;6.286;2022-08-19T07:39:35;44.60;37.00;23.00
51320;PMS5003;38732;49.556;6.286;2022-08-19T07:42:06;46.40;41.20;24.80
51320;PMS5003;38732;49.556;6.286;2022-08-19T07:44:37;44.20;39.00;24.40
51320;PMS5003;38732;49.556;6.286;2022-08-19T07:47:06;46.00;40.00;23.75
51320;PMS5003;38732;49.556;6.286;2022-08-19T07:49:34;46.25;39.75;24.50
51320;PMS5003;38732;49.556;6.286;2022-08-19T07:52:05;46.25;39.75;24.50
51320;PMS5003;38732;49.556;6.286;2022-08-19T07:54:36;43.40;38.40;22.00
51320;PMS5003;38732;49.556;6.286;2022-08-19T07:57:07;50.40;43.60;26.00
51320;PMS5003;38732;49.556;6.286;2022-08-19T07:59:36;46.40;42.80;22.20
51320;PMS5003;38732;49.556;6.286;2022-08-19T08:02:04;38.25;38.00;23.50
51320;PMS5003;38732;49.556;6.286;2022-08-19T08:04:33;45.50;44.00;28.00
51320;PMS5003;38732;49.556;6.286;2022-08-19T08:07:01;55.00;41.25;25.25
51320;PMS5003;38732;49.556;6.286;2022-08-19T08:09:31;39.50;35.75;22.25
51320;PMS5003;38732;49.556;6.286;2022-08-19T08:12:04;49.80;42.20;26.40
51320;PMS5003;38732;49.556;6.286;2022-08-19T08:14:48;44.60;39.80;24.00
51320;PMS5003;38732;49.556;6.286;2022-08-19T08:17:21;56.80;45.40;25.60
51320;PMS5003;38732;49.556;6.286;2022-08-19T08:19:53;52.00;47.20;29.00
51320;PMS5003;38732;49.556;6.286;2022-08-19T08:22:22;46.60;40.60;25.00
51320;PMS5003;38732;49.556;6.286;2022-08-19T08:24:52;50.20;44.20;29.00
51320;PMS5003;38732;49.556;6.286;2022-08-19T08:27:20;48.50;45.00;28.00
51320;PMS5003;38732;49.556;6.286;2022-08-19T08:29:48;51.25;42.75;20.25
51320;PMS5003;38732;49.556;6.286;2022-08-19T08:32:16;52.00;45.00;26.00
51320;PMS5003;38732;49.556;6.286;2022-08-19T08:34:45;51.00;42.50;25.25
51320;PMS5003;38732;49.556;6.286;2022-08-19T08:37:13;47.75;40.25;25.00
51320;PMS5003;38732;49.556;6.286;2022-08-19T08:39:41;51.75;44.25;26.50
51320;PMS5003;38732;49.556;6.286;2022-08-19T08:44:51;44.00;42.40;26.20
51320;PMS5003;38732;49.556;6.286;2022-08-19T08:47:26;45.40;40.00;22.20
51320;PMS5003;38732;49.556;6.286;2022-08-19T08:50:04;47.80;40.00;26.40
51320;PMS5003;38732;49.556;6.286;2022-08-19T08:52:43;46.40;40.20;24.80
51320;PMS5003;38732;49.556;6.286;2022-08-19T08:55:16;38.60;33.80;19.00
51320;PMS5003;38732;49.556;6.286;2022-08-19T09:00:23;41.75;38.25;25.00
51320;PMS5003;38732;49.556;6.286;2022-08-19T09:02:58;38.60;36.40;23.80
51320;PMS5003;38732;49.556;6.286;2022-08-19T09:05:40;40.20;38.00;22.40
51320;PMS5003;38732;49.556;6.286;2022-08-19T09:11:14;39.00;36.60;22.20
51320;PMS5003;38732;49.556;6.286;2022-08-19T09:17:01;43.80;39.20;24.60
51320;PMS5003;38732;49.556;6.286;2022-08-19T09:19:30;50.50;41.00;25.00
51320;PMS5003;38732;49.556;6.286;2022-08-19T09:21:58;41.75;37.50;22.75
51320;PMS5003;38732;49.556;6.286;2022-08-19T09:24:27;46.00;40.50;25.25
51320;PMS5003;38732;49.556;6.286;2022-08-19T09:26:55;32.25;32.00;18.00
51320;PMS5003;38732;49.556;6.286;2022-08-19T09:29:23;36.00;33.75;22.00
51320;PMS5003;38732;49.556;6.286;2022-08-19T09:31:51;37.25;32.25;21.00
51320;PMS5003;38732;49.556;6.286;2022-08-19T09:34:20;38.50;35.75;22.75
51320;PMS5003;38732;49.556;6.286;2022-08-19T09:36:48;35.00;35.00;19.00
51320;PMS5003;38732;49.556;6.286;2022-08-19T09:39:17;37.00;34.60;22.80
51320;PMS5003;38732;49.556;6.286;2022-08-19T09:41:45;37.75;36.50;24.25
51320;PMS5003;38732;49.556;6.286;2022-08-19T09:44:14;42.75;39.00;25.00
51320;PMS5003;38732;49.556;6.286;2022-08-19T09:46:42;40.00;38.50;23.75
51320;PMS5003;38732;49.556;6.286;2022-08-19T09:49:10;33.00;32.50;20.25
51320;PMS5003;38732;49.556;6.286;2022-08-19T09:51:38;29.00;27.25;18.75
51320;PMS5003;38732;49.556;6.286;2022-08-19T09:54:07;34.50;34.50;21.25
51320;PMS5003;38732;49.556;6.286;2022-08-19T09:56:35;29.75;29.00;20.25
51320;PMS5003;38732;49.556;6.286;2022-08-19T09:59:03;37.50;36.00;21.75
51320;PMS5003;38732;49.556;6.286;2022-08-19T10:01:31;38.50;33.00;21.00
51320;PMS5003;38732;49.556;6.286;2022-08-19T10:04:00;32.75;30.50;19.50
51320;PMS5003;38732;49.556;6.286;2022-08-19T10:06:29;26.00;26.00;18.25
51320;PMS5003;38732;49.556;6.286;2022-08-19T10:08:58;30.75;27.75;21.00
51320;PMS5003;38732;49.556;6.286;2022-08-19T10:11:26;26.00;23.00;13.50
51320;PMS5003;38732;49.556;6.286;2022-08-19T10:13:54;23.25;21.00;15.00
51320;PMS5003;38732;49.556;6.286;2022-08-19T10:16:23;31.25;28.50;19.50
51320;PMS5003;38732;49.556;6.286;2022-08-19T10:18:52;23.50;21.75;15.25
51320;PMS5003;38732;49.556;6.286;2022-08-19T10:21:22;25.40;25.20;16.40
51320;PMS5003;38732;49.556;6.286;2022-08-19T10:24:02;28.00;26.40;16.60
51320;PMS5003;38732;49.556;6.286;2022-08-19T10:26:34;24.20;24.00;16.40
51320;PMS5003;38732;49.556;6.286;2022-08-19T10:29:03;21.80;21.80;13.00
51320;PMS5003;38732;49.556;6.286;2022-08-19T10:31:33;29.00;25.20;17.40
51320;PMS5003;38732;49.556;6.286;2022-08-19T10:34:01;23.40;23.20;16.20
51320;PMS5003;38732;49.556;6.286;2022-08-19T10:36:31;25.50;24.25;19.00
51320;PMS5003;38732;49.556;6.286;2022-08-19T10:39:05;30.60;27.00;19.80
51320;PMS5003;38732;49.556;6.286;2022-08-19T10:41:35;23.40;21.80;14.20
51320;PMS5003;38732;49.556;6.286;2022-08-19T10:44:07;26.20;24.80;16.00
51320;PMS5003;38732;49.556;6.286;2022-08-19T10:46:39;23.20;22.60;14.40
51320;PMS5003;38732;49.556;6.286;2022-08-19T10:49:09;26.20;25.60;15.60
51320;PMS5003;38732;49.556;6.286;2022-08-19T10:51:39;23.60;22.60;15.00
51320;PMS5003;38732;49.556;6.286;2022-08-19T10:54:07;19.25;19.25;13.25
51320;PMS5003;38732;49.556;6.286;2022-08-19T10:56:36;23.75;19.00;12.50
51320;PMS5003;38732;49.556;6.286;2022-08-19T10:59:04;22.50;22.50;16.00
51320;PMS5003;38732;49.556;6.286;2022-08-19T11:01:33;17.50;17.50;15.50
51320;PMS5003;38732;49.556;6.286;2022-08-19T11:04:02;21.80;21.80;14.00
51320;PMS5003;38732;49.556;6.286;2022-08-19T11:06:32;12.20;10.60;9.60
51320;PMS5003;38732;49.556;6.286;2022-08-19T11:09:00;25.50;20.50;14.00
51320;PMS5003;38732;49.556;6.286;2022-08-19T11:11:29;23.25;23.25;14.75
51320;PMS5003;38732;49.556;6.286;2022-08-19T11:13:57;17.75;17.25;11.50
51320;PMS5003;38732;49.556;6.286;2022-08-19T11:16:26;20.25;19.00;13.00
51320;PMS5003;38732;49.556;6.286;2022-08-19T11:18:56;18.25;18.25;10.25
51320;PMS5003;38732;49.556;6.286;2022-08-19T11:21:30;21.40;21.20;13.60
51320;PMS5003;38732;49.556;6.286;2022-08-19T11:24:01;21.60;18.80;11.40
51320;PMS5003;38732;49.556;6.286;2022-08-19T11:26:38;20.80;20.80;13.60
51320;PMS5003;38732;49.556;6.286;2022-08-19T11:29:09;21.20;18.00;13.20
51320;PMS5003;38732;49.556;6.286;2022-08-19T11:31:40;23.80;23.80;16.20
51320;PMS5003;38732;49.556;6.286;2022-08-19T11:34:11;17.60;16.80;11.60
51320;PMS5003;38732;49.556;6.286;2022-08-19T11:36:43;20.00;19.00;13.00
51320;PMS5003;38732;49.556;6.286;2022-08-19T11:39:14;13.20;13.20;9.80
51320;PMS5003;38732;49.556;6.286;2022-08-19T11:41:44;14.40;13.00;8.40
51320;PMS5003;38732;49.556;6.286;2022-08-19T11:44:13;13.75;13.75;9.00
51320;PMS5003;38732;49.556;6.286;2022-08-19T11:46:42;15.00;15.00;10.00
51320;PMS5003;38732;49.556;6.286;2022-08-19T11:49:12;17.20;13.40;9.00
51320;PMS5003;38732;49.556;6.286;2022-08-19T11:51:42;13.20;13.00;8.80
51320;PMS5003;38732;49.556;6.286;2022-08-19T11:54:11;16.25;15.00;10.00
51320;PMS5003;38732;49.556;6.286;2022-08-19T11:56:41;11.80;11.60;8.40
51320;PMS5003;38732;49.556;6.286;2022-08-19T11:59:10;10.00;10.00;7.25
51320;PMS5003;38732;49.556;6.286;2022-08-19T12:01:38;13.25;11.25;8.00
51320;PMS5003;38732;49.556;6.286;2022-08-19T12:04:06;15.25;14.00;8.50
51320;PMS5003;38732;49.556;6.286;2022-08-19T12:06:36;11.25;11.00;8.00
51320;PMS5003;38732;49.556;6.286;2022-08-19T12:09:07;12.20;11.60;7.00
51320;PMS5003;38732;49.556;6.286;2022-08-19T12:11:37;11.20;11.20;7.40
51320;PMS5003;38732;49.556;6.286;2022-08-19T12:14:09;13.40;13.40;9.00
51320;PMS5003;38732;49.556;6.286;2022-08-19T12:16:39;12.20;11.00;7.00
51320;PMS5003;38732;49.556;6.286;2022-08-19T12:19:08;13.40;12.20;7.20
51320;PMS5003;38732;49.556;6.286;2022-08-19T12:21:36;13.00;13.00;8.00
51320;PMS5003;38732;49.556;6.286;2022-08-19T12:24:07;12.40;12.40;8.80
51320;PMS5003;38732;49.556;6.286;2022-08-19T12:26:35;11.50;11.50;7.75
51320;PMS5003;38732;49.556;6.286;2022-08-19T12:29:03;6.00;6.00;4.25
51320;PMS5003;38732;49.556;6.286;2022-08-19T12:31:32;3.75;3.50;2.25
51320;PMS5003;38732;49.556;6.286;2022-08-19T12:34:00;5.00;5.00;3.75
51320;PMS5003;38732;49.556;6.286;2022-08-19T12:36:28;5.00;5.00;3.50
51320;PMS5003;38732;49.556;6.286;2022-08-19T12:38:58;4.00;4.00;2.50
51320;PMS5003;38732;49.556;6.286;2022-08-19T12:41:26;7.40;6.00;4.20
51320;PMS5003;38732;49.556;6.286;2022-08-19T12:43:55;7.00;7.00;4.00
51320;PMS5003;38732;49.556;6.286;2022-08-19T12:46:23;9.75;9.75;5.50
51320;PMS5003;38732;49.556;6.286;2022-08-19T12:48:51;9.25;9.25;6.25
51320;PMS5003;38732;49.556;6.286;2022-08-19T12:51:20;13.00;11.75;8.00
51320;PMS5003;38732;49.556;6.286;2022-08-19T12:53:48;12.50;11.50;7.00
51320;PMS5003;38732;49.556;6.286;2022-08-19T12:56:17;12.50;11.50;6.50
51320;PMS5003;38732;49.556;6.286;2022-08-19T12:58:45;16.25;13.75;11.25
51320;PMS5003;38732;49.556;6.286;2022-08-19T13:01:14;12.25;12.25;10.00
51320;PMS5003;38732;49.556;6.286;2022-08-19T13:03:47;15.40;14.40;9.20
51320;PMS5003;38732;49.556;6.286;2022-08-19T13:06:15;13.60;13.60;10.40
51320;PMS5003;38732;49.556;6.286;2022-08-19T13:08:43;13.25;13.25;7.75
51320;PMS5003;38732;49.556;6.286;2022-08-19T13:11:13;14.75;14.75;9.00
51320;PMS5003;38732;49.556;6.286;2022-08-19T13:13:44;14.40;13.80;9.40
51320;PMS5003;38732;49.556;6.286;2022-08-19T13:16:14;13.20;13.20;8.20
51320;PMS5003;38732;49.556;6.286;2022-08-19T13:18:44;14.40;14.40;8.40
51320;PMS5003;38732;49.556;6.286;2022-08-19T13:21:13;14.40;14.40;10.80
51320;PMS5003;38732;49.556;6.286;2022-08-19T13:23:42;12.60;11.40;8.00
51320;PMS5003;38732;49.556;6.286;2022-08-19T13:26:11;13.75;12.75;8.25
51320;PMS5003;38732;49.556;6.286;2022-08-19T13:28:40;11.40;10.80;6.80
51320;PMS5003;38732;49.556;6.286;2022-08-19T13:31:09;7.80;6.40;4.00
51320;PMS5003;38732;49.556;6.286;2022-08-19T13:33:38;8.75;8.75;6.25
51320;PMS5003;38732;49.556;6.286;2022-08-19T13:36:06;10.75;10.00;6.75
51320;PMS5003;38732;49.556;6.286;2022-08-19T13:38:34;12.00;12.00;7.00
51320;PMS5003;38732;49.556;6.286;2022-08-19T13:41:04;7.25;7.25;4.25
51320;PMS5003;38732;49.556;6.286;2022-08-19T13:43:33;13.80;12.00;6.00
51320;PMS5003;38732;49.556;6.286;2022-08-19T13:46:08;9.50;8.00;6.00
51320;PMS5003;38732;49.556;6.286;2022-08-19T13:48:38;12.00;11.80;5.60
51320;PMS5003;38732;49.556;6.286;2022-08-19T13:51:06;10.25;8.00;4.00
51320;PMS5003;38732;49.556;6.286;2022-08-19T13:53:36;10.40;10.40;6.00
51320;PMS5003;38732;49.556;6.286;2022-08-19T13:56:06;8.80;8.00;4.60
51320;PMS5003;38732;49.556;6.286;2022-08-19T13:58:36;7.20;7.20;5.00
51320;PMS5003;38732;49.556;6.286;2022-08-19T14:01:05;10.80;10.80;7.00
51320;PMS5003;38732;49.556;6.286;2022-08-19T14:03:34;8.50;7.50;4.75
51320;PMS5003;38732;49.556;6.286;2022-08-19T14:06:03;9.60;6.80;3.80
51320;PMS5003;38732;49.556;6.286;2022-08-19T14:08:32;7.75;7.75;5.75
51320;PMS5003;38732;49.556;6.286;2022-08-19T14:11:00;8.00;6.25;4.00
51320;PMS5003;38732;49.556;6.286;2022-08-19T14:13:28;6.50;6.50;4.00
51320;PMS5003;38732;49.556;6.286;2022-08-19T14:15:56;4.75;4.75;3.25
51320;PMS5003;38732;49.556;6.286;2022-08-19T14:18:25;7.00;7.00;4.00